createdAt,value
2023-05-19T00:00:48.991Z,11.72
2023-05-19T00:01:55.236Z,11.69
2023-05-19T00:02:58.509Z,11.69
2023-05-19T00:04:05.568Z,11.68
2023-05-19T00:05:10.573Z,11.65
2023-05-19T00:06:14.145Z,11.68
2023-05-19T00:07:26.360Z,11.73
2023-05-19T00:08:32.247Z,11.72
2023-05-19T00:09:35.340Z,11.72
2023-05-19T00:10:39.286Z,11.67
2023-05-19T00:11:42.371Z,11.63
2023-05-19T00:12:45.717Z,11.63
2023-05-19T00:13:49.950Z,11.63
2023-05-19T00:14:52.973Z,11.64
2023-05-19T00:15:56.494Z,11.60
2023-05-19T00:17:02.365Z,11.58
2023-05-19T00:18:05.337Z,11.57
2023-05-19T00:19:11.195Z,11.56
2023-05-19T00:20:14.587Z,11.58
2023-05-19T00:21:17.674Z,11.56
2023-05-19T00:22:20.658Z,11.55
2023-05-19T00:23:23.469Z,11.55
2023-05-19T00:24:26.470Z,11.56
2023-05-19T00:25:29.378Z,11.54
2023-05-19T00:26:32.272Z,11.52
2023-05-19T00:27:35.266Z,11.51
2023-05-19T00:28:38.380Z,11.50
2023-05-19T00:29:41.261Z,11.53
2023-05-19T00:30:44.244Z,11.52
2023-05-19T00:31:47.141Z,11.54
2023-05-19T00:32:50.304Z,11.53
2023-05-19T00:33:53.530Z,11.54
2023-05-19T00:34:56.370Z,11.54
2023-05-19T00:35:59.223Z,11.54
2023-05-19T00:37:02.220Z,11.55
2023-05-19T00:38:05.089Z,11.56
2023-05-19T00:39:08.066Z,11.55
2023-05-19T00:40:11.174Z,11.54
2023-05-19T00:41:14.511Z,11.56
2023-05-19T00:42:17.568Z,11.54
2023-05-19T00:43:20.432Z,11.56
2023-05-19T00:44:23.433Z,11.58
2023-05-19T00:45:26.286Z,11.57
2023-05-19T00:46:30.627Z,11.56
2023-05-19T00:47:33.745Z,11.58
2023-05-19T00:48:36.750Z,11.57
2023-05-19T00:49:39.672Z,11.57
2023-05-19T00:50:43.015Z,11.55
2023-05-19T00:51:46.399Z,11.56
2023-05-19T00:52:49.312Z,11.57
2023-05-19T00:53:52.670Z,11.57
2023-05-19T00:54:56.190Z,11.55
2023-05-19T00:56:00.959Z,11.61
2023-05-19T00:57:04.706Z,11.60
2023-05-19T00:58:11.116Z,11.53
2023-05-19T00:59:14.140Z,11.50
2023-05-19T01:00:17.504Z,11.50
2023-05-19T01:01:21.985Z,11.51
2023-05-19T01:02:25.027Z,11.50
2023-05-19T01:03:31.208Z,11.48
2023-05-19T01:04:38.162Z,11.50
2023-05-19T01:05:42.598Z,11.50
2023-05-19T01:06:47.013Z,11.49
2023-05-19T01:07:53.941Z,11.49
2023-05-19T01:08:57.676Z,11.51
2023-05-19T01:10:00.761Z,11.48
2023-05-19T01:11:08.390Z,11.47
2023-05-19T01:12:11.341Z,11.47
2023-05-19T01:13:14.763Z,11.48
2023-05-19T01:14:19.099Z,11.45
2023-05-19T01:15:23.054Z,11.42
2023-05-19T01:16:32.546Z,11.41
2023-05-19T01:18:08.726Z,11.40
2023-05-19T01:19:46.996Z,11.38
2023-05-19T01:20:59.766Z,11.37
2023-05-19T01:22:14.448Z,11.38
2023-05-19T01:24:04.078Z,11.36
2023-05-19T01:25:13.341Z,11.32
2023-05-19T01:26:34.897Z,11.31
2023-05-19T01:27:56.203Z,11.30
2023-05-19T01:29:17.185Z,11.31
2023-05-19T01:30:27.599Z,11.29
2023-05-19T01:31:31.643Z,11.29
2023-05-19T01:32:36.237Z,11.27
2023-05-19T01:33:43.200Z,11.29
2023-05-19T01:34:49.249Z,11.28
2023-05-19T01:35:54.419Z,11.26
2023-05-19T01:37:01.117Z,11.26
2023-05-19T01:38:08.455Z,11.22
2023-05-19T01:39:12.259Z,11.20
2023-05-19T01:40:15.840Z,11.19
2023-05-19T01:41:22.666Z,11.18
2023-05-19T01:42:27.881Z,11.19
2023-05-19T01:43:31.590Z,11.18
2023-05-19T01:44:34.661Z,11.14
2023-05-19T01:45:37.819Z,11.15
2023-05-19T01:46:41.783Z,11.13
2023-05-19T01:47:52.065Z,11.14
2023-05-19T01:48:56.223Z,11.14
2023-05-19T01:49:59.189Z,11.16
2023-05-19T01:51:02.364Z,11.16
2023-05-19T01:52:05.642Z,11.18
2023-05-19T01:53:08.925Z,11.20
2023-05-19T01:54:11.860Z,11.21
2023-05-19T01:55:14.828Z,11.21
2023-05-19T01:56:26.221Z,11.21
2023-05-19T01:57:32.592Z,11.18
2023-05-19T01:58:51.085Z,11.16
2023-05-19T01:59:56.974Z,11.15
2023-05-19T02:01:18.526Z,11.15
2023-05-19T02:02:31.477Z,11.15
2023-05-19T02:03:48.252Z,11.15
2023-05-19T02:05:06.754Z,11.17
2023-05-19T02:06:42.443Z,11.16
2023-05-19T02:07:52.899Z,11.15
2023-05-19T02:09:22.340Z,11.16
2023-05-19T02:10:32.836Z,11.15
2023-05-19T02:11:46.384Z,11.15
2023-05-19T02:12:53.539Z,11.13
2023-05-19T02:14:01.530Z,11.12
2023-05-19T02:15:08.106Z,11.10
2023-05-19T02:16:12.033Z,11.08
2023-05-19T02:17:16.534Z,11.08
2023-05-19T02:18:20.686Z,11.07
2023-05-19T02:19:40.326Z,11.05
2023-05-19T02:20:43.320Z,11.05
2023-05-19T02:21:46.178Z,11.04
2023-05-19T02:22:49.450Z,11.06
2023-05-19T02:23:52.412Z,11.06
2023-05-19T02:24:56.855Z,11.04
2023-05-19T02:25:59.759Z,11.02
2023-05-19T02:27:02.934Z,11.01
2023-05-19T02:28:06.989Z,11.00
2023-05-19T02:29:10.228Z,11.01
2023-05-19T02:30:13.267Z,11.00
2023-05-19T02:31:16.260Z,11.00
2023-05-19T02:32:19.668Z,11.02
2023-05-19T02:33:25.037Z,11.05
2023-05-19T02:34:27.920Z,11.06
2023-05-19T02:35:30.881Z,11.04
2023-05-19T02:36:37.108Z,11.04
2023-05-19T02:37:40.203Z,11.02
2023-05-19T02:38:43.175Z,11.01
2023-05-19T02:39:46.012Z,11.00
2023-05-19T02:40:48.985Z,11.00
2023-05-19T02:41:51.918Z,11.02
2023-05-19T02:42:54.932Z,11.03
2023-05-19T02:43:58.261Z,10.99
2023-05-19T02:45:01.174Z,10.96
2023-05-19T02:46:04.214Z,10.95
2023-05-19T02:47:07.262Z,10.93
2023-05-19T02:48:10.184Z,10.92
2023-05-19T02:49:13.311Z,10.92
2023-05-19T02:50:16.422Z,10.90
2023-05-19T02:51:19.529Z,10.91
2023-05-19T02:52:22.620Z,10.92
2023-05-19T02:53:25.839Z,10.89
2023-05-19T02:54:29.209Z,10.89
2023-05-19T02:55:32.141Z,10.87
2023-05-19T02:56:34.972Z,10.86
2023-05-19T02:57:38.870Z,10.85
2023-05-19T02:58:43.520Z,10.85
2023-05-19T02:59:46.422Z,10.86
2023-05-19T03:00:49.396Z,10.87
2023-05-19T03:01:55.882Z,10.86
2023-05-19T03:03:03.191Z,10.85
2023-05-19T03:04:06.195Z,10.84
2023-05-19T03:05:10.537Z,10.84
2023-05-19T03:06:14.438Z,10.84
2023-05-19T03:07:17.316Z,10.86
2023-05-19T03:08:20.772Z,10.86
2023-05-19T03:09:23.720Z,10.82
2023-05-19T03:10:26.715Z,10.79
2023-05-19T03:11:31.254Z,10.82
2023-05-19T03:12:34.316Z,10.81
2023-05-19T03:13:37.344Z,10.81
2023-05-19T03:14:40.446Z,10.78
2023-05-19T03:15:43.439Z,10.77
2023-05-19T03:16:46.363Z,10.75
2023-05-19T03:17:49.555Z,10.76
2023-05-19T03:18:52.696Z,10.75
2023-05-19T03:19:55.986Z,10.73
2023-05-19T03:20:59.128Z,10.73
2023-05-19T03:22:05.262Z,10.73
2023-05-19T03:23:09.291Z,10.75
2023-05-19T03:24:12.170Z,10.77
2023-05-19T03:25:15.133Z,10.77
2023-05-19T03:26:17.978Z,10.76
2023-05-19T03:27:20.912Z,10.74
2023-05-19T03:28:23.942Z,10.76
2023-05-19T03:29:26.901Z,10.78
2023-05-19T03:30:29.775Z,10.74
2023-05-19T03:31:32.815Z,10.71
2023-05-19T03:32:38.300Z,10.70
2023-05-19T03:33:41.378Z,10.71
2023-05-19T03:34:44.391Z,10.72
2023-05-19T03:35:47.365Z,10.73
2023-05-19T03:36:50.573Z,10.72
2023-05-19T03:37:53.564Z,10.73
2023-05-19T03:38:56.427Z,10.75
2023-05-19T03:40:00.085Z,10.75
2023-05-19T03:41:02.959Z,10.77
2023-05-19T03:42:06.140Z,10.76
2023-05-19T03:43:09.148Z,10.77
2023-05-19T03:44:12.222Z,10.78
2023-05-19T03:45:15.377Z,10.80
2023-05-19T03:46:18.334Z,10.80
2023-05-19T03:47:21.192Z,10.82
2023-05-19T03:48:24.304Z,10.83
2023-05-19T03:49:27.232Z,10.82
2023-05-19T03:50:32.190Z,10.83
2023-05-19T03:51:37.255Z,10.83
2023-05-19T03:52:40.541Z,10.87
2023-05-19T03:53:43.578Z,10.89
2023-05-19T03:54:46.385Z,10.93
2023-05-19T03:55:49.926Z,10.93
2023-05-19T03:56:52.751Z,10.92
2023-05-19T03:57:56.344Z,10.92
2023-05-19T03:58:59.757Z,10.91
2023-05-19T04:00:03.848Z,10.91
2023-05-19T04:01:07.021Z,10.93
2023-05-19T04:02:10.026Z,10.94
2023-05-19T04:03:13.116Z,10.96
2023-05-19T04:04:16.196Z,10.98
2023-05-19T04:05:19.193Z,11.00
2023-05-19T04:06:22.363Z,11.01
2023-05-19T04:07:25.191Z,11.02
2023-05-19T04:08:28.106Z,11.01
2023-05-19T04:09:32.736Z,11.05
2023-05-19T04:10:35.592Z,11.08
2023-05-19T04:11:39.935Z,11.08
2023-05-19T04:12:42.880Z,11.10
2023-05-19T04:13:46.212Z,11.13
2023-05-19T04:14:49.109Z,11.13
2023-05-19T04:15:52.359Z,11.16
2023-05-19T04:16:55.983Z,11.19
2023-05-19T04:17:58.917Z,11.20
2023-05-19T04:19:02.018Z,11.21
2023-05-19T04:20:08.168Z,11.25
2023-05-19T04:21:11.174Z,11.25
2023-05-19T04:22:14.146Z,11.27
2023-05-19T04:23:17.080Z,11.28
2023-05-19T04:24:20.048Z,11.30
2023-05-19T04:25:25.523Z,11.33
2023-05-19T04:26:31.247Z,11.35
2023-05-19T04:27:37.096Z,11.38
2023-05-19T04:28:42.847Z,11.42
2023-05-19T04:29:48.525Z,11.44
2023-05-19T04:30:51.962Z,11.45
2023-05-19T04:31:55.487Z,11.48
2023-05-19T04:32:59.499Z,11.51
2023-05-19T04:34:02.372Z,11.55
2023-05-19T04:35:06.020Z,11.59
2023-05-19T04:36:10.829Z,11.63
2023-05-19T04:37:14.477Z,11.66
2023-05-19T04:38:19.220Z,11.70
2023-05-19T04:39:22.217Z,11.72
2023-05-19T04:40:25.034Z,11.76
2023-05-19T04:41:28.032Z,11.76
2023-05-19T04:42:33.590Z,11.82
2023-05-19T04:43:37.026Z,11.86
2023-05-19T04:44:40.413Z,11.89
2023-05-19T04:45:43.392Z,11.90
2023-05-19T04:46:46.404Z,11.93
2023-05-19T04:47:49.560Z,11.97
2023-05-19T04:48:53.553Z,11.99
2023-05-19T04:50:01.119Z,12.04
2023-05-19T04:51:04.236Z,12.10
2023-05-19T04:52:12.038Z,12.14
2023-05-19T04:53:15.720Z,12.18
2023-05-19T04:54:18.811Z,12.22
2023-05-19T04:55:21.644Z,12.28
2023-05-19T04:56:24.652Z,12.32
2023-05-19T04:57:27.467Z,12.39
2023-05-19T04:58:30.829Z,12.43
2023-05-19T04:59:33.941Z,12.47
2023-05-19T05:00:39.542Z,12.53
2023-05-19T05:01:43.516Z,12.56
2023-05-19T05:02:46.632Z,12.57
2023-05-19T05:03:49.680Z,12.60
2023-05-19T05:04:54.736Z,12.63
2023-05-19T05:05:58.895Z,12.69
2023-05-19T05:07:02.203Z,12.71
2023-05-19T05:08:05.158Z,12.78
2023-05-19T05:09:08.123Z,12.79
2023-05-19T05:10:11.193Z,12.83
2023-05-19T05:11:14.340Z,12.87
2023-05-19T05:12:18.909Z,12.89
2023-05-19T05:13:23.577Z,12.89
2023-05-19T05:14:27.283Z,12.90
2023-05-19T05:15:30.610Z,12.93
2023-05-19T05:16:34.471Z,12.94
2023-05-19T05:17:37.964Z,12.96
2023-05-19T05:18:43.469Z,13.01
2023-05-19T05:19:48.892Z,13.00
2023-05-19T05:20:52.004Z,13.05
2023-05-19T05:21:55.243Z,13.08
2023-05-19T05:22:58.393Z,13.13
2023-05-19T05:24:01.807Z,13.14
2023-05-19T05:25:05.489Z,13.19
2023-05-19T05:26:17.528Z,13.20
2023-05-19T05:27:20.493Z,13.21
2023-05-19T05:28:23.701Z,13.22
2023-05-19T05:29:27.454Z,13.24
2023-05-19T05:30:30.523Z,13.26
2023-05-19T05:31:33.659Z,13.28
2023-05-19T05:32:36.755Z,13.28
2023-05-19T05:33:39.952Z,13.29
2023-05-19T05:34:43.503Z,13.33
2023-05-19T05:35:47.161Z,13.38
2023-05-19T05:36:50.222Z,13.41
2023-05-19T05:37:53.063Z,13.43
2023-05-19T05:38:56.165Z,13.45
2023-05-19T05:39:59.188Z,13.42
2023-05-19T05:41:03.395Z,13.43
2023-05-19T05:42:06.656Z,13.45
2023-05-19T05:43:09.633Z,13.53
2023-05-19T05:44:12.719Z,13.56
2023-05-19T05:45:15.676Z,13.57
2023-05-19T05:46:18.723Z,13.59
2023-05-19T05:47:21.837Z,13.61
2023-05-19T05:48:25.043Z,13.64
2023-05-19T05:49:28.169Z,13.63
2023-05-19T05:50:31.357Z,13.69
2023-05-19T05:51:34.666Z,13.72
2023-05-19T05:52:38.565Z,13.78
2023-05-19T05:53:45.054Z,13.91
2023-05-19T05:54:48.344Z,13.90
2023-05-19T05:55:51.889Z,13.96
2023-05-19T05:56:55.096Z,13.94
2023-05-19T05:57:58.904Z,13.97
2023-05-19T05:59:03.120Z,14.04
2023-05-19T06:00:08.527Z,14.04
2023-05-19T06:01:11.786Z,14.15
2023-05-19T06:02:14.774Z,14.17
2023-05-19T06:03:17.773Z,14.20
2023-05-19T06:04:21.422Z,14.20
2023-05-19T06:05:25.438Z,14.31
2023-05-19T06:06:28.541Z,14.30
2023-05-19T06:07:31.427Z,14.28
2023-05-19T06:08:34.487Z,14.24
2023-05-19T06:09:37.491Z,14.20
2023-05-19T06:10:42.074Z,14.18
2023-05-19T06:11:45.021Z,14.18
2023-05-19T06:12:48.387Z,14.19
2023-05-19T06:13:51.417Z,14.21
2023-05-19T06:14:54.259Z,14.21
2023-05-19T06:15:57.353Z,14.21
2023-05-19T06:17:01.611Z,14.30
2023-05-19T06:18:04.691Z,14.44
2023-05-19T06:19:07.724Z,14.43
2023-05-19T06:20:11.586Z,14.47
2023-05-19T06:21:14.881Z,14.40
2023-05-19T06:22:17.922Z,14.42
2023-05-19T06:23:20.997Z,14.42
2023-05-19T06:24:24.057Z,14.38
2023-05-19T06:25:26.995Z,14.38
2023-05-19T06:26:30.006Z,14.42
2023-05-19T06:27:34.760Z,14.44
2023-05-19T06:28:37.854Z,14.50
2023-05-19T06:29:40.858Z,14.60
2023-05-19T06:30:43.817Z,14.61
2023-05-19T06:31:47.113Z,14.59
2023-05-19T06:32:50.327Z,14.60
2023-05-19T06:33:54.052Z,14.64
2023-05-19T06:34:57.008Z,14.64
2023-05-19T06:36:00.132Z,14.69
2023-05-19T06:37:03.901Z,14.73
2023-05-19T06:38:07.058Z,14.78
2023-05-19T06:39:09.886Z,14.85
2023-05-19T06:40:13.358Z,14.97
2023-05-19T06:41:16.289Z,15.06
2023-05-19T06:42:22.923Z,15.12
2023-05-19T06:43:25.984Z,15.18
2023-05-19T06:44:28.884Z,15.24
2023-05-19T06:45:32.091Z,15.32
2023-05-19T06:46:35.241Z,15.41
2023-05-19T06:47:38.330Z,15.40
2023-05-19T06:48:41.377Z,15.42
2023-05-19T06:49:45.591Z,15.43
2023-05-19T06:50:48.572Z,15.44
2023-05-19T06:51:51.544Z,15.49
2023-05-19T06:52:54.690Z,15.51
2023-05-19T06:53:57.901Z,15.59
2023-05-19T06:55:00.838Z,15.63
2023-05-19T06:56:03.912Z,15.63
2023-05-19T06:57:06.753Z,15.63
2023-05-19T06:58:09.729Z,15.63
2023-05-19T06:59:12.655Z,15.70
2023-05-19T07:00:31.778Z,15.73
2023-05-19T07:01:35.021Z,15.64
2023-05-19T07:02:38.144Z,15.59
2023-05-19T07:03:41.313Z,15.64
2023-05-19T07:04:44.338Z,15.66
2023-05-19T07:05:47.671Z,15.62
2023-05-19T07:06:50.620Z,15.63
2023-05-19T07:07:53.636Z,15.61
2023-05-19T07:08:56.887Z,15.58
2023-05-19T07:10:00.313Z,15.62
2023-05-19T07:11:03.314Z,15.64
2023-05-19T07:12:06.615Z,15.71
2023-05-19T07:13:09.538Z,15.77
2023-05-19T07:14:12.434Z,15.82
2023-05-19T07:15:15.308Z,15.88
2023-05-19T07:16:18.107Z,15.90
2023-05-19T07:17:21.137Z,15.95
2023-05-19T07:18:24.059Z,16.03
2023-05-19T07:19:27.181Z,16.11
2023-05-19T07:20:30.342Z,16.05
2023-05-19T07:21:33.373Z,16.08
2023-05-19T07:22:37.134Z,16.08
2023-05-19T07:23:39.955Z,16.10
2023-05-19T07:24:43.050Z,16.26
2023-05-19T07:25:45.878Z,16.28
2023-05-19T07:26:48.973Z,16.30
2023-05-19T07:27:51.888Z,16.28
2023-05-19T07:28:54.713Z,16.28
2023-05-19T07:29:59.180Z,16.28
2023-05-19T07:31:02.645Z,16.29
2023-05-19T07:32:06.082Z,16.31
2023-05-19T07:33:08.958Z,16.35
2023-05-19T07:34:11.972Z,16.47
2023-05-19T07:35:14.855Z,16.59
2023-05-19T07:36:17.818Z,16.66
2023-05-19T07:37:20.793Z,16.67
2023-05-19T07:38:23.669Z,16.75
2023-05-19T07:39:29.971Z,16.76
2023-05-19T07:40:33.049Z,16.79
2023-05-19T07:41:36.516Z,16.81
2023-05-19T07:42:39.543Z,16.86
2023-05-19T07:43:43.134Z,16.85
2023-05-19T07:44:46.104Z,16.87
2023-05-19T07:45:48.933Z,16.91
2023-05-19T07:46:51.879Z,16.93
2023-05-19T07:47:54.938Z,16.91
2023-05-19T07:48:57.850Z,16.97
2023-05-19T07:50:00.954Z,17.03
2023-05-19T07:51:04.392Z,17.07
2023-05-19T07:52:07.641Z,17.12
2023-05-19T07:53:10.458Z,17.12
2023-05-19T07:54:13.376Z,17.11
2023-05-19T07:55:17.569Z,17.18
2023-05-19T07:56:20.614Z,17.17
2023-05-19T07:57:23.755Z,17.19
2023-05-19T07:58:27.004Z,17.17
2023-05-19T07:59:30.057Z,17.24
2023-05-19T08:00:33.580Z,17.30
2023-05-19T08:01:36.769Z,17.29
2023-05-19T08:02:39.841Z,17.27
2023-05-19T08:03:42.782Z,17.23
2023-05-19T08:04:46.134Z,17.25
2023-05-19T08:05:49.083Z,17.38
2023-05-19T08:06:53.254Z,17.47
2023-05-19T08:07:57.661Z,17.42
2023-05-19T08:09:00.610Z,17.42
2023-05-19T08:10:04.267Z,17.42
2023-05-19T08:11:07.285Z,17.46
2023-05-19T08:12:10.130Z,17.49
2023-05-19T08:13:13.048Z,17.47
2023-05-19T08:14:16.467Z,17.55
2023-05-19T08:15:19.860Z,17.54
2023-05-19T08:16:23.123Z,17.65
2023-05-19T08:17:26.216Z,17.78
2023-05-19T08:18:29.651Z,17.91
2023-05-19T08:19:32.568Z,17.96
2023-05-19T08:20:35.576Z,17.96
2023-05-19T08:21:38.655Z,17.97
2023-05-19T08:22:41.605Z,17.97
2023-05-19T08:23:44.890Z,18.05
2023-05-19T08:24:50.240Z,18.10
2023-05-19T08:25:53.209Z,18.05
2023-05-19T08:26:56.256Z,18.07
2023-05-19T08:27:59.223Z,18.07
2023-05-19T08:29:02.187Z,18.04
2023-05-19T08:30:05.462Z,18.08
2023-05-19T08:31:11.126Z,18.14
2023-05-19T08:32:14.064Z,18.29
2023-05-19T08:33:17.736Z,18.29
2023-05-19T08:34:21.005Z,18.28
2023-05-19T08:35:24.049Z,18.25
2023-05-19T08:36:26.949Z,18.17
2023-05-19T08:37:31.463Z,18.15
2023-05-19T08:38:35.736Z,18.14
2023-05-19T08:39:38.633Z,18.16
2023-05-19T08:40:48.020Z,18.13
2023-05-19T08:41:50.962Z,18.12
2023-05-19T08:42:54.625Z,18.08
2023-05-19T08:43:57.581Z,18.10
2023-05-19T08:45:02.050Z,18.08
2023-05-19T08:46:06.592Z,18.08
2023-05-19T08:47:14.080Z,18.15
2023-05-19T08:48:19.500Z,18.43
2023-05-19T08:49:31.220Z,18.64
2023-05-19T08:50:39.525Z,18.68
2023-05-19T08:52:00.889Z,18.80
2023-05-19T08:53:25.014Z,18.95
2023-05-19T08:55:09.953Z,19.16
2023-05-19T08:56:18.435Z,19.39
2023-05-19T08:57:23.993Z,19.56
2023-05-19T08:58:28.900Z,19.67
2023-05-19T08:59:32.414Z,19.57
2023-05-19T09:00:36.291Z,19.46
2023-05-19T09:01:40.189Z,19.39
2023-05-19T09:02:55.041Z,19.39
2023-05-19T09:04:04.638Z,19.37
2023-05-19T09:05:08.075Z,19.22
2023-05-19T09:06:14.567Z,19.09
2023-05-19T09:07:19.136Z,18.96
2023-05-19T09:08:22.825Z,18.87
2023-05-19T09:09:25.935Z,18.69
2023-05-19T09:10:29.368Z,18.69
2023-05-19T09:11:33.164Z,18.64
2023-05-19T09:12:36.166Z,18.53
2023-05-19T09:13:39.386Z,18.43
2023-05-19T09:14:42.529Z,18.43
2023-05-19T09:15:46.415Z,18.37
2023-05-19T09:16:52.698Z,18.38
2023-05-19T09:18:15.461Z,18.45
2023-05-19T09:19:18.753Z,18.57
2023-05-19T09:20:21.623Z,18.68
2023-05-19T09:21:33.674Z,18.80
2023-05-19T09:22:42.088Z,18.95
2023-05-19T09:23:47.626Z,19.10
2023-05-19T09:24:50.551Z,19.25
2023-05-19T09:25:54.207Z,19.47
2023-05-19T09:26:58.449Z,19.69
2023-05-19T09:28:03.006Z,19.80
2023-05-19T09:29:17.111Z,19.97
2023-05-19T09:30:20.474Z,20.03
2023-05-19T09:31:23.803Z,20.12
2023-05-19T09:32:27.959Z,20.26
2023-05-19T09:33:33.628Z,20.34
2023-05-19T09:34:42.139Z,20.25
2023-05-19T09:35:47.618Z,20.20
2023-05-19T09:36:52.083Z,20.18
2023-05-19T09:37:55.456Z,20.11
2023-05-19T09:38:58.321Z,20.04
2023-05-19T09:40:01.288Z,19.99
2023-05-19T09:41:05.669Z,19.97
2023-05-19T09:42:08.575Z,19.93
2023-05-19T09:43:12.096Z,19.93
2023-05-19T09:44:21.479Z,19.86
2023-05-19T09:45:27.510Z,19.76
2023-05-19T09:46:30.507Z,19.74
2023-05-19T09:47:36.406Z,19.74
2023-05-19T09:48:39.439Z,19.73
2023-05-19T09:49:47.720Z,19.74
2023-05-19T09:50:51.943Z,19.75
2023-05-19T09:51:57.674Z,19.63
2023-05-19T09:53:01.077Z,19.57
2023-05-19T09:54:04.984Z,19.50
2023-05-19T09:55:11.921Z,19.44
2023-05-19T09:56:15.364Z,19.43
2023-05-19T09:57:18.730Z,19.42
2023-05-19T09:58:22.216Z,19.39
2023-05-19T09:59:26.388Z,19.50
2023-05-19T10:00:31.620Z,19.55
2023-05-19T10:01:41.332Z,19.53
2023-05-19T10:02:49.256Z,19.51
2023-05-19T10:03:53.871Z,19.49
2023-05-19T10:04:56.913Z,19.57
2023-05-19T10:06:01.638Z,19.65
2023-05-19T10:07:06.500Z,19.80
2023-05-19T10:08:10.694Z,20.07
2023-05-19T10:09:14.207Z,20.22
2023-05-19T10:10:17.854Z,20.38
2023-05-19T10:11:23.405Z,20.54
2023-05-19T10:12:27.159Z,20.80
2023-05-19T10:13:31.206Z,20.97
2023-05-19T10:14:34.364Z,21.12
2023-05-19T10:15:53.703Z,21.35
2023-05-19T10:17:00.044Z,21.49
2023-05-19T10:18:03.944Z,21.54
2023-05-19T10:19:09.408Z,21.68
2023-05-19T10:20:17.339Z,21.75
2023-05-19T10:21:20.334Z,21.73
2023-05-19T10:22:23.251Z,21.57
2023-05-19T10:23:26.982Z,21.44
2023-05-19T10:24:29.918Z,21.33
2023-05-19T10:25:34.710Z,21.26
2023-05-19T10:26:41.446Z,21.01
2023-05-19T10:28:14.527Z,20.87
2023-05-19T10:29:22.671Z,20.76
2023-05-19T10:30:30.332Z,20.95
2023-05-19T10:31:36.195Z,21.05
2023-05-19T10:32:42.082Z,21.12
2023-05-19T10:33:59.780Z,21.01
2023-05-19T10:35:40.032Z,21.15
2023-05-19T10:36:50.087Z,21.01
2023-05-19T10:37:55.473Z,21.06
2023-05-19T10:39:08.625Z,21.12
2023-05-19T10:40:39.285Z,21.09
2023-05-19T10:41:52.286Z,20.83
2023-05-19T10:43:18.302Z,20.71
2023-05-19T10:44:49.983Z,20.73
2023-05-19T10:45:55.212Z,20.78
2023-05-19T10:46:58.177Z,20.88
2023-05-19T10:48:01.359Z,20.81
2023-05-19T10:49:04.342Z,20.63
2023-05-19T10:50:08.427Z,20.56
2023-05-19T10:51:12.485Z,20.52
2023-05-19T10:52:30.523Z,20.60
2023-05-19T10:53:35.137Z,20.65
2023-05-19T10:54:43.735Z,20.79
2023-05-19T10:55:56.746Z,20.81
2023-05-19T10:56:59.654Z,20.76
2023-05-19T10:58:02.512Z,20.70
2023-05-19T10:59:05.451Z,20.64
2023-05-19T11:00:29.731Z,20.42
2023-05-19T11:01:38.498Z,20.21
2023-05-19T11:02:44.256Z,20.10
2023-05-19T11:03:53.524Z,20.03
2023-05-19T11:05:09.574Z,19.96
2023-05-19T11:06:19.451Z,19.95
2023-05-19T11:07:22.690Z,19.84
2023-05-19T11:08:33.856Z,19.88
2023-05-19T11:09:43.262Z,19.86
2023-05-19T11:10:46.508Z,20.13
2023-05-19T11:11:52.923Z,20.30
2023-05-19T11:12:58.229Z,20.51
2023-05-19T11:14:01.520Z,20.76
2023-05-19T11:15:04.934Z,20.94
2023-05-19T11:16:09.520Z,21.14
2023-05-19T11:17:16.548Z,21.35
2023-05-19T11:18:20.044Z,21.55
2023-05-19T11:19:27.692Z,21.57
2023-05-19T11:20:35.056Z,21.55
2023-05-19T11:21:52.738Z,21.59
2023-05-19T11:23:14.898Z,21.58
2023-05-19T11:24:37.524Z,21.61
2023-05-19T11:25:51.191Z,21.73
2023-05-19T11:26:55.107Z,21.81
2023-05-19T11:27:58.871Z,21.92
2023-05-19T11:29:02.532Z,21.96
2023-05-19T11:30:14.907Z,22.05
2023-05-19T11:31:19.650Z,22.20
2023-05-19T11:32:26.640Z,22.16
2023-05-19T11:33:30.391Z,22.25
2023-05-19T11:34:35.992Z,22.38
2023-05-19T11:35:39.126Z,22.42
2023-05-19T11:36:45.617Z,22.35
2023-05-19T11:37:50.892Z,22.59
2023-05-19T11:38:53.986Z,22.69
2023-05-19T11:39:56.831Z,22.71
2023-05-19T11:41:01.203Z,22.80
2023-05-19T11:42:04.511Z,22.79
2023-05-19T11:43:07.581Z,22.73
2023-05-19T11:44:12.239Z,22.79
2023-05-19T11:45:15.112Z,22.88
2023-05-19T11:46:18.530Z,22.84
2023-05-19T11:47:21.725Z,22.89
2023-05-19T11:48:26.735Z,23.00
2023-05-19T11:49:29.841Z,23.03
2023-05-19T11:50:33.561Z,23.19
2023-05-19T11:51:36.797Z,23.27
2023-05-19T11:52:46.033Z,23.36
2023-05-19T11:53:50.351Z,23.25
2023-05-19T11:54:53.723Z,23.29
2023-05-19T11:55:56.712Z,23.43
2023-05-19T11:57:06.245Z,23.39
2023-05-19T11:58:09.166Z,23.49
2023-05-19T11:59:12.313Z,23.34
2023-05-19T12:00:15.626Z,23.10
2023-05-19T12:01:18.716Z,22.99
2023-05-19T12:02:25.722Z,23.03
2023-05-19T12:03:30.012Z,23.27
2023-05-19T12:04:33.000Z,23.32
2023-05-19T12:05:46.528Z,23.43
2023-05-19T12:06:50.324Z,23.43
2023-05-19T12:07:53.926Z,23.47
2023-05-19T12:08:57.078Z,23.52
2023-05-19T12:10:00.416Z,23.47
2023-05-19T12:11:03.588Z,23.55
2023-05-19T12:12:06.715Z,23.63
2023-05-19T12:13:10.512Z,23.67
2023-05-19T12:14:13.830Z,23.67
2023-05-19T12:15:21.216Z,23.61
2023-05-19T12:16:24.256Z,23.43
2023-05-19T12:17:27.182Z,23.48
2023-05-19T12:18:32.252Z,23.41
2023-05-19T12:19:35.504Z,23.40
2023-05-19T12:20:38.447Z,23.43
2023-05-19T12:21:41.707Z,23.51
2023-05-19T12:22:45.204Z,23.57
2023-05-19T12:23:48.274Z,23.57
2023-05-19T12:24:51.577Z,23.60
2023-05-19T12:25:54.660Z,23.57
2023-05-19T12:27:21.297Z,23.47
2023-05-19T12:28:24.337Z,23.46
2023-05-19T12:29:29.471Z,23.35
2023-05-19T12:30:33.581Z,23.44
2023-05-19T12:31:38.273Z,23.50
2023-05-19T12:32:41.639Z,23.32
2023-05-19T12:33:46.151Z,23.18
2023-05-19T12:34:50.196Z,23.21
2023-05-19T12:35:54.826Z,23.22
2023-05-19T12:36:57.778Z,23.11
2023-05-19T12:38:07.531Z,23.12
2023-05-19T12:39:10.944Z,23.18
2023-05-19T12:40:17.151Z,23.18
2023-05-19T12:41:20.330Z,23.31
2023-05-19T12:42:24.017Z,23.27
2023-05-19T12:43:27.136Z,23.34
2023-05-19T12:44:31.664Z,23.35
2023-05-19T12:45:39.004Z,23.33
2023-05-19T12:46:42.074Z,23.24
2023-05-19T12:47:48.760Z,23.25
2023-05-19T12:48:52.015Z,23.25
2023-05-19T12:50:09.050Z,23.36
2023-05-19T12:51:21.217Z,23.38
2023-05-19T12:52:25.160Z,23.47
2023-05-19T12:53:28.524Z,23.56
2023-05-19T12:54:34.773Z,23.60
2023-05-19T12:55:46.479Z,23.60
2023-05-19T12:56:51.588Z,23.55
2023-05-19T12:57:58.529Z,23.59
2023-05-19T12:59:02.289Z,23.50
2023-05-19T13:00:11.051Z,23.44
2023-05-19T13:01:18.136Z,23.43
2023-05-19T13:02:21.530Z,23.42
2023-05-19T13:03:24.655Z,23.49
2023-05-19T13:04:28.657Z,23.45
2023-05-19T13:05:38.230Z,23.34
2023-05-19T13:06:42.113Z,23.29
2023-05-19T13:07:57.555Z,23.28
2023-05-19T13:09:00.433Z,23.31
2023-05-19T13:10:04.153Z,23.33
2023-05-19T13:11:07.185Z,23.49
2023-05-19T13:12:10.248Z,23.57
2023-05-19T13:13:13.825Z,23.70
2023-05-19T13:14:18.977Z,23.67
2023-05-19T13:15:27.176Z,23.72
2023-05-19T13:16:30.351Z,23.72
2023-05-19T13:17:35.167Z,23.81
2023-05-19T13:18:38.623Z,23.87
2023-05-19T13:19:41.663Z,24.02
2023-05-19T13:20:45.733Z,23.98
2023-05-19T13:21:50.070Z,24.10
2023-05-19T13:22:53.716Z,24.05
2023-05-19T13:23:56.633Z,23.86
2023-05-19T13:25:00.119Z,23.85
2023-05-19T13:26:05.265Z,23.76
2023-05-19T13:27:08.503Z,23.61
2023-05-19T13:28:12.494Z,23.67
2023-05-19T13:29:15.510Z,23.67
2023-05-19T13:30:19.536Z,23.72
2023-05-19T13:31:22.502Z,23.75
2023-05-19T13:32:25.685Z,23.78
2023-05-19T13:33:28.656Z,23.65
2023-05-19T13:34:31.515Z,23.58
2023-05-19T13:35:38.196Z,23.57
2023-05-19T13:36:43.012Z,23.55
2023-05-19T13:37:46.610Z,23.63
2023-05-19T13:38:49.432Z,23.62
2023-05-19T13:39:52.568Z,23.77
2023-05-19T13:40:55.657Z,23.90
2023-05-19T13:41:58.878Z,23.78
2023-05-19T13:43:06.238Z,23.69
2023-05-19T13:44:09.165Z,23.63
2023-05-19T13:45:12.335Z,23.59
2023-05-19T13:46:15.337Z,23.59
2023-05-19T13:47:18.376Z,23.68
2023-05-19T13:48:21.442Z,23.73
2023-05-19T13:49:24.985Z,23.67
2023-05-19T13:50:27.946Z,23.49
2023-05-19T13:51:30.883Z,23.22
2023-05-19T13:52:33.964Z,22.97
2023-05-19T13:53:37.018Z,22.78
2023-05-19T13:54:39.918Z,22.67
2023-05-19T13:55:42.916Z,22.50
2023-05-19T13:56:49.079Z,22.35
2023-05-19T13:57:52.299Z,22.36
2023-05-19T13:58:55.672Z,22.24